createdAt,value
2023-03-25T00:00:17.518Z,8.14
2023-03-25T00:02:46.242Z,8.19
2023-03-25T00:05:14.959Z,8.11
2023-03-25T00:07:42.902Z,8.23
2023-03-25T00:10:11.289Z,8.11
2023-03-25T00:12:38.742Z,8.08
2023-03-25T00:15:10.885Z,8.11
2023-03-25T00:17:38.576Z,8.01
2023-03-25T00:20:11.115Z,8.04
2023-03-25T00:22:41.513Z,8.09
2023-03-25T00:25:17.089Z,8.12
2023-03-25T00:27:46.376Z,8.08
2023-03-25T00:30:18.347Z,8.11
2023-03-25T00:32:49.786Z,8.07
2023-03-25T00:35:19.378Z,8.06
2023-03-25T00:37:48.173Z,8.03
2023-03-25T00:40:15.019Z,7.98
2023-03-25T00:42:44.911Z,7.91
2023-03-25T00:45:14.703Z,7.90
2023-03-25T00:47:41.631Z,7.85
2023-03-25T00:50:08.770Z,7.88
2023-03-25T00:52:35.707Z,7.85
2023-03-25T00:55:02.779Z,7.78
2023-03-25T00:57:29.584Z,7.81
2023-03-25T00:59:56.319Z,7.72
2023-03-25T01:02:23.884Z,7.62
2023-03-25T01:04:50.848Z,7.72
2023-03-25T01:07:20.747Z,7.74
2023-03-25T01:09:48.741Z,7.69
2023-03-25T01:12:16.111Z,7.74
2023-03-25T01:14:43.635Z,7.74
2023-03-25T01:17:11.140Z,7.74
2023-03-25T01:19:37.963Z,7.84
2023-03-25T01:22:05.486Z,7.72
2023-03-25T01:24:32.519Z,7.76
2023-03-25T01:26:59.340Z,7.74
2023-03-25T01:29:26.111Z,7.67
2023-03-25T01:31:53.713Z,7.70
2023-03-25T01:34:20.461Z,7.53
2023-03-25T01:36:47.267Z,7.53
2023-03-25T01:39:16.645Z,7.64
2023-03-25T01:41:50.236Z,7.63
2023-03-25T01:44:21.000Z,7.69
2023-03-25T01:46:49.646Z,7.70
2023-03-25T01:49:26.439Z,7.71
2023-03-25T01:52:18.345Z,7.67
2023-03-25T01:54:46.475Z,7.70
2023-03-25T01:57:18.401Z,7.67
2023-03-25T01:59:45.612Z,7.55
2023-03-25T02:02:15.740Z,7.56
2023-03-25T02:05:03.987Z,7.49
2023-03-25T02:07:36.704Z,7.49
2023-03-25T02:10:09.718Z,7.42
2023-03-25T02:12:36.555Z,7.38
2023-03-25T02:15:06.583Z,7.41
2023-03-25T02:17:45.772Z,7.32
2023-03-25T02:20:46.270Z,7.38
2023-03-25T02:23:28.699Z,7.40
2023-03-25T02:26:20.858Z,7.35
2023-03-25T02:28:57.496Z,7.30
2023-03-25T02:31:46.457Z,7.22
2023-03-25T02:34:41.965Z,7.23
2023-03-25T02:37:33.741Z,7.18
2023-03-25T02:40:08.626Z,7.17
2023-03-25T02:42:46.970Z,7.11
2023-03-25T02:45:29.633Z,7.09
2023-03-25T02:48:01.741Z,7.18
2023-03-25T02:50:35.434Z,7.15
2023-03-25T02:53:08.698Z,7.11
2023-03-25T02:55:35.965Z,7.10
2023-03-25T02:58:06.354Z,7.16
2023-03-25T03:00:34.529Z,7.22
2023-03-25T03:03:04.173Z,7.19
2023-03-25T03:05:43.838Z,7.14
2023-03-25T03:08:19.131Z,7.17
2023-03-25T03:11:13.451Z,7.18
2023-03-25T03:13:51.956Z,7.12
2023-03-25T03:16:49.940Z,7.14
2023-03-25T03:19:25.690Z,7.11
2023-03-25T03:21:52.476Z,7.17
2023-03-25T03:24:32.519Z,7.13
2023-03-25T03:27:17.510Z,7.17
2023-03-25T03:29:44.204Z,7.14
2023-03-25T03:32:22.781Z,7.20
2023-03-25T03:34:53.576Z,7.09
2023-03-25T03:37:32.997Z,7.19
2023-03-25T03:40:02.756Z,7.24
2023-03-25T03:42:37.602Z,7.26
2023-03-25T03:45:10.040Z,7.26
2023-03-25T03:47:44.331Z,7.29
2023-03-25T03:50:15.977Z,7.28
2023-03-25T03:52:50.551Z,7.25
2023-03-25T03:55:37.868Z,7.27
2023-03-25T03:58:23.442Z,7.30
2023-03-25T04:01:30.557Z,7.31
2023-03-25T04:04:01.461Z,7.28
2023-03-25T04:06:38.792Z,7.32
2023-03-25T04:09:27.396Z,7.35
2023-03-25T04:12:00.294Z,7.32
2023-03-25T04:14:27.469Z,7.28
2023-03-25T04:16:55.642Z,7.37
2023-03-25T04:19:23.815Z,7.39
2023-03-25T04:21:50.734Z,7.41
2023-03-25T04:24:19.780Z,7.40
2023-03-25T04:26:47.688Z,7.45
2023-03-25T04:29:14.593Z,7.42
2023-03-25T04:31:46.573Z,7.39
2023-03-25T04:34:15.031Z,7.42
2023-03-25T04:36:43.156Z,7.40
2023-03-25T04:39:13.058Z,7.45
2023-03-25T04:41:40.097Z,7.55
2023-03-25T04:44:07.743Z,7.56
2023-03-25T04:46:36.584Z,7.65
2023-03-25T04:49:06.124Z,7.63
2023-03-25T04:51:33.295Z,7.64
2023-03-25T04:54:00.856Z,7.64
2023-03-25T04:56:27.913Z,7.75
2023-03-25T04:58:54.873Z,7.82
2023-03-25T05:01:30.789Z,7.85
2023-03-25T05:04:05.153Z,7.92
2023-03-25T05:06:38.351Z,7.92
2023-03-25T05:09:07.166Z,8.02
2023-03-25T05:11:37.098Z,8.09
2023-03-25T05:14:04.216Z,8.06
2023-03-25T05:16:31.078Z,8.01
2023-03-25T05:18:57.861Z,8.04
2023-03-25T05:21:24.628Z,8.04
2023-03-25T05:23:52.683Z,8.08
2023-03-25T05:26:20.836Z,8.14
2023-03-25T05:28:51.474Z,8.13
2023-03-25T05:31:18.685Z,8.07
2023-03-25T05:33:45.511Z,8.14
2023-03-25T05:36:13.818Z,8.15
2023-03-25T05:38:41.791Z,8.13
2023-03-25T05:41:12.211Z,8.20
2023-03-25T05:43:38.969Z,8.27
2023-03-25T05:46:06.157Z,8.28
2023-03-25T05:48:32.981Z,8.30
2023-03-25T05:51:04.315Z,8.36
2023-03-25T05:53:33.015Z,8.30
2023-03-25T05:55:59.811Z,8.29
2023-03-25T05:58:26.481Z,8.31
2023-03-25T06:00:53.283Z,8.43
2023-03-25T06:03:21.068Z,8.43
2023-03-25T06:05:48.524Z,8.44
2023-03-25T06:08:17.178Z,8.43
2023-03-25T06:10:45.863Z,8.47
2023-03-25T06:13:12.654Z,8.55
2023-03-25T06:15:41.876Z,8.58
2023-03-25T06:18:10.557Z,8.61
2023-03-25T06:20:37.421Z,8.63
2023-03-25T06:23:04.185Z,8.77
2023-03-25T06:25:31.300Z,8.87
2023-03-25T06:28:03.098Z,8.92
2023-03-25T06:30:29.932Z,8.97
2023-03-25T06:32:58.680Z,9.02
2023-03-25T06:35:25.603Z,9.18
2023-03-25T06:37:52.555Z,9.21
2023-03-25T06:40:20.104Z,9.34
2023-03-25T06:42:46.965Z,9.25
2023-03-25T06:45:13.951Z,9.29
2023-03-25T06:47:40.712Z,9.24
2023-03-25T06:50:08.102Z,9.33
2023-03-25T06:52:35.961Z,9.44
2023-03-25T06:55:02.898Z,9.74
2023-03-25T06:57:29.577Z,10.28
2023-03-25T06:59:56.303Z,10.11
2023-03-25T07:02:23.127Z,10.10
2023-03-25T07:04:49.967Z,10.08
2023-03-25T07:07:16.802Z,10.16
2023-03-25T07:09:43.749Z,10.06
2023-03-25T07:12:10.573Z,10.03
2023-03-25T07:14:37.445Z,10.00
2023-03-25T07:17:04.139Z,9.95
2023-03-25T07:19:31.017Z,9.85
2023-03-25T07:21:57.770Z,9.66
2023-03-25T07:24:24.488Z,9.59
2023-03-25T07:26:51.299Z,9.44
2023-03-25T07:29:18.084Z,9.23
2023-03-25T07:31:46.951Z,9.16
2023-03-25T07:34:13.986Z,9.10
2023-03-25T07:36:41.056Z,9.03
2023-03-25T07:39:08.028Z,8.97
2023-03-25T07:41:34.984Z,8.91
2023-03-25T07:44:01.749Z,8.94
2023-03-25T07:46:28.668Z,8.78
2023-03-25T07:48:55.888Z,8.85
2023-03-25T07:51:22.795Z,8.75
2023-03-25T07:53:49.690Z,8.62
2023-03-25T07:56:16.504Z,8.55
2023-03-25T07:58:44.460Z,8.49
2023-03-25T08:01:12.078Z,8.48
2023-03-25T08:03:40.050Z,8.53
2023-03-25T08:06:07.886Z,8.52
2023-03-25T08:08:35.391Z,8.64
2023-03-25T08:11:02.325Z,8.92
2023-03-25T08:13:30.329Z,9.18
2023-03-25T08:15:57.214Z,9.35
2023-03-25T08:18:24.725Z,9.60
2023-03-25T08:20:52.236Z,9.52
2023-03-25T08:23:20.178Z,9.48
2023-03-25T08:25:51.820Z,9.54
2023-03-25T08:28:23.016Z,9.69
2023-03-25T08:30:54.969Z,9.68
2023-03-25T08:33:27.284Z,9.67
2023-03-25T08:35:57.505Z,9.70
2023-03-25T08:38:25.301Z,9.53
2023-03-25T08:40:52.073Z,9.54
2023-03-25T08:43:19.001Z,9.74
2023-03-25T08:45:45.889Z,9.79
2023-03-25T08:48:12.769Z,10.00
2023-03-25T08:50:39.567Z,9.92
2023-03-25T08:53:06.705Z,10.05
2023-03-25T08:55:33.628Z,9.95
2023-03-25T08:58:06.118Z,9.88
2023-03-25T09:00:33.019Z,10.06
2023-03-25T09:03:00.773Z,9.88
2023-03-25T09:05:27.627Z,9.78
2023-03-25T09:07:54.636Z,9.37
2023-03-25T09:10:24.221Z,9.15
2023-03-25T09:12:51.775Z,9.08
2023-03-25T09:15:18.945Z,9.24
2023-03-25T09:17:45.840Z,9.45
2023-03-25T09:20:12.678Z,9.57
2023-03-25T09:22:40.449Z,9.55
2023-03-25T09:25:07.911Z,9.40
2023-03-25T09:27:35.703Z,9.34
2023-03-25T09:30:03.585Z,9.41
2023-03-25T09:32:31.124Z,9.42
2023-03-25T09:34:57.862Z,9.59
2023-03-25T09:37:24.956Z,9.52
2023-03-25T09:39:52.166Z,9.47
2023-03-25T09:42:37.600Z,9.59
2023-03-25T09:45:26.200Z,9.64
2023-03-25T09:48:11.616Z,9.65
2023-03-25T09:50:41.239Z,9.93
2023-03-25T09:53:34.358Z,10.04
2023-03-25T09:56:02.888Z,10.20
2023-03-25T09:58:46.893Z,12.14
2023-03-25T10:01:37.640Z,12.90
2023-03-25T10:04:34.768Z,14.33
2023-03-25T10:07:15.759Z,13.66
2023-03-25T10:09:54.814Z,13.04
2023-03-25T10:12:41.694Z,13.15
2023-03-25T10:15:20.414Z,13.12
2023-03-25T10:17:56.873Z,14.48
2023-03-25T10:20:30.517Z,13.22
2023-03-25T10:23:07.479Z,13.37
2023-03-25T10:25:38.334Z,13.27
2023-03-25T10:28:06.444Z,12.79
2023-03-25T10:30:41.644Z,12.77
2023-03-25T10:33:37.317Z,12.56
2023-03-25T10:36:06.663Z,12.40
2023-03-25T10:38:36.464Z,12.27
2023-03-25T10:41:20.754Z,12.22
2023-03-25T10:43:47.582Z,12.36
2023-03-25T10:46:31.729Z,12.32
2023-03-25T10:48:58.725Z,12.42
2023-03-25T10:51:35.620Z,12.29
2023-03-25T10:54:02.886Z,13.32
2023-03-25T10:56:39.406Z,12.71
2023-03-25T10:59:31.780Z,12.78
2023-03-25T11:01:59.726Z,12.62
2023-03-25T11:04:34.681Z,12.45
2023-03-25T11:07:05.718Z,12.43
2023-03-25T11:09:34.366Z,12.27
2023-03-25T11:12:04.537Z,12.37
2023-03-25T11:14:36.157Z,12.23
2023-03-25T11:17:05.853Z,11.92
2023-03-25T11:19:46.926Z,12.28
2023-03-25T11:22:26.519Z,12.90
2023-03-25T11:25:06.446Z,12.81
2023-03-25T11:27:45.281Z,12.65
2023-03-25T11:30:21.033Z,12.71
2023-03-25T11:33:05.638Z,12.47
2023-03-25T11:35:38.311Z,12.56
2023-03-25T11:38:19.215Z,12.27
2023-03-25T11:40:57.934Z,12.07
2023-03-25T11:43:35.234Z,11.44
2023-03-25T11:46:14.860Z,9.52
2023-03-25T11:48:43.779Z,8.47
2023-03-25T11:51:16.378Z,8.39
2023-03-25T11:53:47.247Z,8.33
2023-03-25T11:56:22.156Z,8.36
2023-03-25T11:58:52.030Z,8.18
2023-03-25T12:01:28.400Z,8.19
2023-03-25T12:04:27.598Z,8.19
2023-03-25T12:07:11.755Z,8.30
2023-03-25T12:09:54.690Z,8.37
2023-03-25T12:12:32.307Z,8.20
2023-03-25T12:15:23.998Z,8.28
2023-03-25T12:18:01.013Z,8.24
2023-03-25T12:20:54.677Z,8.34
2023-03-25T12:23:38.637Z,8.37
2023-03-25T12:26:37.439Z,8.47
2023-03-25T12:29:13.259Z,8.56
2023-03-25T12:32:08.955Z,8.75
2023-03-25T12:35:08.607Z,8.85
2023-03-25T12:38:00.533Z,9.10
2023-03-25T12:40:29.967Z,9.42
2023-03-25T12:43:16.672Z,9.83
2023-03-25T12:46:25.718Z,10.24
2023-03-25T12:48:59.103Z,10.63
2023-03-25T12:52:03.272Z,11.88
2023-03-25T12:54:35.554Z,12.29
2023-03-25T12:57:40.900Z,12.64
2023-03-25T13:00:26.234Z,12.06
2023-03-25T13:03:14.860Z,12.71
2023-03-25T13:05:54.396Z,13.55
2023-03-25T13:08:57.071Z,14.14
2023-03-25T13:11:31.776Z,13.60
2023-03-25T13:14:04.915Z,14.04
2023-03-25T13:16:34.089Z,14.10
2023-03-25T13:19:10.610Z,13.66
2023-03-25T13:21:43.763Z,13.08
2023-03-25T13:24:24.844Z,12.52
2023-03-25T13:26:53.948Z,12.20
2023-03-25T13:29:29.923Z,11.92
2023-03-25T13:32:01.487Z,11.74
2023-03-25T13:34:28.544Z,11.59
2023-03-25T13:37:10.189Z,11.57
2023-03-25T13:40:15.776Z,11.56
2023-03-25T13:42:53.640Z,11.38
2023-03-25T13:45:22.860Z,11.17
2023-03-25T13:48:01.367Z,11.00
2023-03-25T13:50:31.039Z,11.01
2023-03-25T13:53:04.671Z,10.79
2023-03-25T13:55:46.527Z,10.41
2023-03-25T13:58:34.140Z,10.49
2023-03-25T14:01:21.621Z,10.44
2023-03-25T14:04:29.676Z,9.78
2023-03-25T14:07:02.188Z,9.74
2023-03-25T14:09:41.645Z,10.74
2023-03-25T14:12:29.904Z,10.80
2023-03-25T14:15:04.104Z,10.82
2023-03-25T14:17:32.922Z,10.97
2023-03-25T14:20:00.633Z,11.75
2023-03-25T14:22:30.753Z,12.80
2023-03-25T14:24:59.542Z,13.12
2023-03-25T14:27:37.598Z,12.86
2023-03-25T14:30:06.056Z,12.23
2023-03-25T14:32:35.802Z,12.20
2023-03-25T14:35:34.045Z,12.76
2023-03-25T14:38:21.951Z,12.30
2023-03-25T14:41:02.994Z,12.15
2023-03-25T14:43:38.665Z,11.85
2023-03-25T14:46:19.038Z,11.81
2023-03-25T14:49:04.387Z,11.39
2023-03-25T14:51:31.333Z,11.25
2023-03-25T14:54:32.456Z,10.82
2023-03-25T14:57:07.279Z,10.85
2023-03-25T14:59:48.624Z,10.71
2023-03-25T15:02:25.934Z,10.67
2023-03-25T15:05:20.939Z,10.63
2023-03-25T15:07:59.009Z,10.54
2023-03-25T15:10:36.518Z,10.53
2023-03-25T15:13:09.051Z,10.40
2023-03-25T15:15:44.965Z,10.30
2023-03-25T15:18:12.938Z,10.27
2023-03-25T15:20:39.789Z,10.30
2023-03-25T15:23:18.562Z,10.15
2023-03-25T15:25:54.827Z,9.91
2023-03-25T15:28:30.682Z,9.81
2023-03-25T15:31:12.640Z,9.75
2023-03-25T15:33:59.535Z,9.59
2023-03-25T15:36:47.947Z,9.50
2023-03-25T15:39:37.212Z,9.23
2023-03-25T15:42:04.088Z,9.10
2023-03-25T15:44:49.363Z,9.06
2023-03-25T15:47:28.620Z,8.90
2023-03-25T15:50:14.583Z,8.92
2023-03-25T15:52:59.937Z,8.97
2023-03-25T15:55:31.405Z,9.16
2023-03-25T15:58:02.941Z,9.47
2023-03-25T16:00:37.441Z,9.34
2023-03-25T16:03:12.132Z,9.39
2023-03-25T16:05:47.260Z,9.31
2023-03-25T16:08:22.386Z,9.33
2023-03-25T16:10:49.465Z,9.18
2023-03-25T16:13:24.201Z,9.06
2023-03-25T16:15:55.603Z,9.02
2023-03-25T16:18:24.515Z,8.83
2023-03-25T16:21:01.639Z,8.74
2023-03-25T16:23:30.787Z,8.89
2023-03-25T16:25:57.556Z,8.80
2023-03-25T16:28:31.531Z,8.82
2023-03-25T16:30:58.529Z,9.01
2023-03-25T16:33:38.440Z,9.04
2023-03-25T16:36:09.351Z,9.14
2023-03-25T16:38:36.591Z,9.08
2023-03-25T16:41:07.598Z,9.08
2023-03-25T16:43:34.602Z,9.03
2023-03-25T16:46:03.720Z,8.97
2023-03-25T16:48:48.936Z,8.92
2023-03-25T16:51:21.169Z,8.81
2023-03-25T16:53:52.021Z,8.80
2023-03-25T16:56:30.925Z,8.78
2023-03-25T16:59:02.550Z,8.71
2023-03-25T17:01:33.547Z,8.68
2023-03-25T17:04:17.281Z,8.68
2023-03-25T17:06:52.589Z,8.58
2023-03-25T17:09:28.345Z,8.56
2023-03-25T17:11:57.666Z,8.57
2023-03-25T17:14:33.592Z,8.61
2023-03-25T17:17:25.708Z,8.56
2023-03-25T17:19:52.861Z,8.50
2023-03-25T17:22:39.787Z,8.55
2023-03-25T17:25:24.814Z,8.46
2023-03-25T17:28:00.835Z,8.47
2023-03-25T17:30:40.666Z,8.38
2023-03-25T17:33:18.048Z,8.37
2023-03-25T17:35:51.833Z,8.37
2023-03-25T17:38:28.475Z,8.31
2023-03-25T17:41:09.835Z,8.31
2023-03-25T17:43:41.843Z,8.24
2023-03-25T17:46:09.591Z,8.29
2023-03-25T17:48:36.770Z,8.22
2023-03-25T17:51:04.026Z,8.27
2023-03-25T17:53:30.835Z,8.24
2023-03-25T17:55:59.285Z,8.32
2023-03-25T17:58:26.388Z,8.28
2023-03-25T18:00:53.423Z,8.32
2023-03-25T18:03:23.821Z,8.28
2023-03-25T18:05:53.858Z,8.24
2023-03-25T18:08:24.795Z,8.24
2023-03-25T18:10:53.673Z,8.30
2023-03-25T18:13:25.081Z,8.30
2023-03-25T18:15:53.338Z,8.23
2023-03-25T18:18:24.279Z,8.18
2023-03-25T18:20:53.063Z,8.16
2023-03-25T18:23:20.516Z,8.16
2023-03-25T18:25:47.915Z,8.15
2023-03-25T18:28:15.992Z,8.13
2023-03-25T18:30:49.829Z,8.06
2023-03-25T18:33:17.382Z,8.12
2023-03-25T18:35:44.825Z,8.17
2023-03-25T18:38:20.292Z,8.12
2023-03-25T18:40:48.229Z,8.03
2023-03-25T18:43:15.610Z,8.04
2023-03-25T18:45:42.829Z,8.03
2023-03-25T18:48:14.837Z,7.97
2023-03-25T18:50:52.591Z,7.96
2023-03-25T18:53:21.670Z,8.04
2023-03-25T18:55:49.389Z,8.08
2023-03-25T18:58:22.669Z,8.05
2023-03-25T19:00:51.331Z,8.03
2023-03-25T19:03:19.118Z,8.08
2023-03-25T19:05:46.283Z,8.02
2023-03-25T19:08:19.484Z,8.07
2023-03-25T19:10:47.275Z,7.98
2023-03-25T19:13:15.087Z,7.97
2023-03-25T19:15:43.123Z,8.01
2023-03-25T19:18:19.587Z,7.92
2023-03-25T19:20:48.385Z,7.98
2023-03-25T19:23:16.756Z,7.96
2023-03-25T19:25:48.603Z,7.91
2023-03-25T19:28:16.791Z,7.86
2023-03-25T19:30:46.360Z,7.85
2023-03-25T19:33:13.813Z,7.79
2023-03-25T19:35:41.434Z,7.75
2023-03-25T19:38:08.631Z,7.76
2023-03-25T19:40:40.910Z,7.77
2023-03-25T19:43:07.788Z,7.72
2023-03-25T19:45:35.594Z,7.72
2023-03-25T19:48:02.475Z,7.67
2023-03-25T19:50:32.072Z,7.69
2023-03-25T19:53:01.482Z,7.65
2023-03-25T19:55:28.582Z,7.64
2023-03-25T19:57:55.756Z,7.64
2023-03-25T20:00:26.516Z,7.68
2023-03-25T20:03:00.929Z,7.69
2023-03-25T20:05:30.761Z,7.73
2023-03-25T20:07:57.885Z,7.63
2023-03-25T20:10:27.882Z,7.61
2023-03-25T20:12:55.556Z,7.65
2023-03-25T20:15:24.508Z,7.58
2023-03-25T20:17:53.450Z,7.63
2023-03-25T20:20:21.422Z,7.60
2023-03-25T20:22:48.608Z,7.59
2023-03-25T20:25:16.319Z,7.62
2023-03-25T20:27:44.099Z,7.57
2023-03-25T20:30:14.460Z,7.63
2023-03-25T20:33:06.735Z,7.61
2023-03-25T20:35:34.335Z,7.59
2023-03-25T20:38:01.209Z,7.56
2023-03-25T20:40:41.614Z,7.53
2023-03-25T20:43:13.917Z,7.53
2023-03-25T20:45:41.373Z,7.54
2023-03-25T20:48:08.893Z,7.55
2023-03-25T20:50:36.021Z,7.58
2023-03-25T20:53:02.771Z,7.54
2023-03-25T20:55:29.552Z,7.60
2023-03-25T20:57:56.679Z,7.65
2023-03-25T21:00:23.368Z,7.68
2023-03-25T21:02:50.839Z,7.62
2023-03-25T21:05:17.924Z,7.61
2023-03-25T21:07:44.711Z,7.61
2023-03-25T21:10:11.585Z,7.65
2023-03-25T21:12:43.832Z,7.56
2023-03-25T21:15:12.093Z,7.57
2023-03-25T21:17:38.950Z,7.63
2023-03-25T21:20:09.314Z,7.63
2023-03-25T21:22:42.908Z,7.67
2023-03-25T21:25:10.915Z,7.60
2023-03-25T21:27:39.167Z,7.55
2023-03-25T21:30:09.760Z,7.56
2023-03-25T21:32:38.071Z,7.57
2023-03-25T21:35:05.082Z,7.58
2023-03-25T21:37:38.530Z,7.55
2023-03-25T21:40:08.266Z,7.55
2023-03-25T21:42:38.236Z,7.55
2023-03-25T21:45:07.615Z,7.56
2023-03-25T21:47:35.946Z,7.54
2023-03-25T21:50:06.447Z,7.54
2023-03-25T21:52:33.969Z,7.52
2023-03-25T21:55:00.896Z,7.53
2023-03-25T21:57:30.729Z,7.65
2023-03-25T21:59:57.526Z,7.59
2023-03-25T22:02:25.562Z,7.63
2023-03-25T22:04:52.390Z,7.52
2023-03-25T22:07:19.163Z,7.54
2023-03-25T22:09:48.018Z,7.54
2023-03-25T22:12:14.844Z,7.50
2023-03-25T22:14:41.636Z,7.44
2023-03-25T22:17:08.555Z,7.42
2023-03-25T22:19:35.559Z,7.41
2023-03-25T22:22:03.301Z,7.39
2023-03-25T22:24:31.627Z,7.37
2023-03-25T22:26:58.462Z,7.45
2023-03-25T22:29:25.637Z,7.39
2023-03-25T22:31:55.924Z,7.42
2023-03-25T22:34:22.890Z,7.46
2023-03-25T22:36:50.647Z,7.45
2023-03-25T22:39:20.635Z,7.45
2023-03-25T22:41:47.919Z,7.47
2023-03-25T22:44:17.087Z,7.38
2023-03-25T22:46:48.043Z,7.47
2023-03-25T22:49:16.128Z,7.45
2023-03-25T22:51:43.724Z,7.56
2023-03-25T22:54:10.852Z,7.52
2023-03-25T22:56:38.239Z,7.55
2023-03-25T22:59:07.153Z,7.59
2023-03-25T23:01:36.207Z,7.60
2023-03-25T23:04:03.903Z,7.53
2023-03-25T23:06:33.280Z,7.49
2023-03-25T23:09:00.529Z,7.54
2023-03-25T23:11:30.275Z,7.56
2023-03-25T23:14:13.347Z,7.47
2023-03-25T23:16:41.809Z,7.49
2023-03-25T23:19:10.189Z,7.58
2023-03-25T23:21:38.502Z,7.53
2023-03-25T23:24:05.707Z,7.54
2023-03-25T23:26:40.291Z,7.61
2023-03-25T23:29:10.742Z,7.52
2023-03-25T23:31:41.198Z,7.58
2023-03-25T23:34:14.419Z,7.56
2023-03-25T23:36:41.828Z,7.42
2023-03-25T23:39:12.270Z,7.52
2023-03-25T23:41:39.338Z,7.59
2023-03-25T23:44:06.437Z,7.61
2023-03-25T23:46:34.299Z,7.52
2023-03-25T23:49:04.953Z,7.60
2023-03-25T23:51:37.291Z,7.57
2023-03-25T23:54:06.431Z,7.48
2023-03-25T23:56:33.683Z,7.55
2023-03-25T23:59:01.679Z,7.53
